Skip Navigation Links Skip Navigation Links

Current Weather

La Porte Muni, La Porte, Ind.

For information only: do not use for flight planning or navigation.
Latest weather
Observation time Tuesday, September 28, 2021 5:35 AM CDT
Local time Tuesday, September 28, 2021 5:49 AM CDT
Flight conditions Visual Meteorological Conditions
Winds
Wind direction Northeast (40°)
Wind speed 8 mph
Visibility 10 mi.
Sky condition
Ceiling unlimited
Sky clear
Temperature 58°F
Dewpoint 57°F
Altimeter 29.96 in.Hg
Derived measurements
Relative humidity 97%
Density altitude 904 ft.
Remarks
Fully automated report.
Automated weather observing station with precipitation discriminator.
METAR KPPO 281035Z AUTO 04007KT 10SM CLR 14/14 A2996 RMK AO2 T01430138

Settings

Location code

InnerDrive.Weather 4.0.6770.0 Release CLR 4.0.30319.42000
Copyright ©2018 Inner Drive Technology. All rights reserved. Portions Copyright ©1986-2018 David Braverman.

Find weather

Site navigation


Skip Navigation Links

Place info

Page info

PayPal - The safer, easier way to pay online!

Return home.

Copyright ©2021 Inner Drive Technology. Purveyors of fine, hand-crafted computer software. Page printed 2021-09-28T10:49:41 UTC.